sensor_id;sensor_type;location;lat;lon;timestamp;P1;durP1;ratioP1;P2;durP2;ratioP2
67904;SDS011;54709;43.614;1.576;2022-08-11T00:01:10;7.28;;;2.33;;
67904;SDS011;54709;43.614;1.576;2022-08-11T00:03:49;3.67;;;2.30;;
67904;SDS011;54709;43.614;1.576;2022-08-11T00:06:25;4.35;;;2.22;;
67904;SDS011;54709;43.614;1.576;2022-08-11T00:08:53;3.70;;;2.40;;
67904;SDS011;54709;43.614;1.576;2022-08-11T00:11:19;3.72;;;2.22;;
67904;SDS011;54709;43.614;1.576;2022-08-11T00:13:46;4.35;;;2.45;;
67904;SDS011;54709;43.614;1.576;2022-08-11T00:16:14;4.75;;;2.30;;
67904;SDS011;54709;43.614;1.576;2022-08-11T00:18:49;6.82;;;2.63;;
67904;SDS011;54709;43.614;1.576;2022-08-11T00:21:16;2.50;;;2.30;;
67904;SDS011;54709;43.614;1.576;2022-08-11T00:23:44;4.07;;;2.30;;
67904;SDS011;54709;43.614;1.576;2022-08-11T00:26:14;5.13;;;2.42;;
67904;SDS011;54709;43.614;1.576;2022-08-11T00:28:40;4.70;;;2.40;;
67904;SDS011;54709;43.614;1.576;2022-08-11T00:31:07;3.55;;;2.42;;
67904;SDS011;54709;43.614;1.576;2022-08-11T00:33:40;6.80;;;2.40;;
67904;SDS011;54709;43.614;1.576;2022-08-11T00:36:08;4.25;;;2.30;;
67904;SDS011;54709;43.614;1.576;2022-08-11T00:38:39;6.55;;;2.33;;
67904;SDS011;54709;43.614;1.576;2022-08-11T00:41:54;6.07;;;2.60;;
67904;SDS011;54709;43.614;1.576;2022-08-11T00:46:56;5.82;;;2.70;;
67904;SDS011;54709;43.614;1.576;2022-08-11T00:52:35;5.95;;;2.30;;
67904;SDS011;54709;43.614;1.576;2022-08-11T01:06:48;4.82;;;2.60;;
67904;SDS011;54709;43.614;1.576;2022-08-11T01:29:52;5.53;;;2.75;;
67904;SDS011;54709;43.614;1.576;2022-08-11T01:40:54;5.22;;;2.72;;
67904;SDS011;54709;43.614;1.576;2022-08-11T01:54:32;3.33;;;3.00;;
67904;SDS011;54709;43.614;1.576;2022-08-11T02:03:06;3.83;;;2.90;;
67904;SDS011;54709;43.614;1.576;2022-08-11T02:25:37;6.10;;;2.95;;
67904;SDS011;54709;43.614;1.576;2022-08-11T02:31:14;3.80;;;2.88;;
67904;SDS011;54709;43.614;1.576;2022-08-11T02:34:08;4.13;;;2.80;;
67904;SDS011;54709;43.614;1.576;2022-08-11T02:36:57;4.60;;;3.22;;
67904;SDS011;54709;43.614;1.576;2022-08-11T02:39:28;4.68;;;2.97;;
67904;SDS011;54709;43.614;1.576;2022-08-11T02:42:10;4.18;;;3.20;;
67904;SDS011;54709;43.614;1.576;2022-08-11T02:47:48;5.70;;;3.40;;
67904;SDS011;54709;43.614;1.576;2022-08-11T02:51:02;5.40;;;3.35;;
67904;SDS011;54709;43.614;1.576;2022-08-11T02:59:19;6.63;;;4.00;;
67904;SDS011;54709;43.614;1.576;2022-08-11T03:12:43;5.40;;;4.05;;
67904;SDS011;54709;43.614;1.576;2022-08-11T03:15:31;8.52;;;4.35;;
67904;SDS011;54709;43.614;1.576;2022-08-11T03:18:23;4.75;;;3.72;;
67904;SDS011;54709;43.614;1.576;2022-08-11T03:21:39;5.13;;;4.40;;
67904;SDS011;54709;43.614;1.576;2022-08-11T03:24:00;5.88;;;4.05;;
67904;SDS011;54709;43.614;1.576;2022-08-11T03:29:34;4.85;;;4.07;;
67904;SDS011;54709;43.614;1.576;2022-08-11T03:32:29;5.78;;;4.30;;
67904;SDS011;54709;43.614;1.576;2022-08-11T03:34:58;6.70;;;4.03;;
67904;SDS011;54709;43.614;1.576;2022-08-11T03:43:06;10.13;;;4.28;;
67904;SDS011;54709;43.614;1.576;2022-08-11T03:46:00;4.88;;;4.30;;
67904;SDS011;54709;43.614;1.576;2022-08-11T03:48:48;6.18;;;4.30;;
67904;SDS011;54709;43.614;1.576;2022-08-11T03:51:26;6.05;;;4.40;;
67904;SDS011;54709;43.614;1.576;2022-08-11T04:13:09;7.88;;;5.10;;
67904;SDS011;54709;43.614;1.576;2022-08-11T04:30:06;11.90;;;5.10;;
67904;SDS011;54709;43.614;1.576;2022-08-11T04:35:24;7.53;;;4.68;;
67904;SDS011;54709;43.614;1.576;2022-08-11T05:05:13;6.20;;;5.60;;
67904;SDS011;54709;43.614;1.576;2022-08-11T05:10:44;7.88;;;5.18;;
67904;SDS011;54709;43.614;1.576;2022-08-11T05:16:26;7.25;;;5.40;;
67904;SDS011;54709;43.614;1.576;2022-08-11T05:19:19;7.18;;;5.82;;
67904;SDS011;54709;43.614;1.576;2022-08-11T05:22:04;7.53;;;5.10;;
67904;SDS011;54709;43.614;1.576;2022-08-11T05:24:56;6.30;;;5.30;;
67904;SDS011;54709;43.614;1.576;2022-08-11T05:27:48;8.02;;;5.32;;
67904;SDS011;54709;43.614;1.576;2022-08-11T05:30:35;7.25;;;5.75;;
67904;SDS011;54709;43.614;1.576;2022-08-11T05:33:20;5.65;;;5.07;;
67904;SDS011;54709;43.614;1.576;2022-08-11T05:36:11;5.85;;;5.03;;
67904;SDS011;54709;43.614;1.576;2022-08-11T05:38:38;6.95;;;5.00;;
67904;SDS011;54709;43.614;1.576;2022-08-11T05:41:23;7.93;;;5.13;;
67904;SDS011;54709;43.614;1.576;2022-08-11T05:44:09;6.00;;;5.40;;
67904;SDS011;54709;43.614;1.576;2022-08-11T05:46:53;6.97;;;5.20;;
67904;SDS011;54709;43.614;1.576;2022-08-11T05:49:38;5.80;;;5.18;;
67904;SDS011;54709;43.614;1.576;2022-08-11T05:52:22;6.25;;;5.22;;
67904;SDS011;54709;43.614;1.576;2022-08-11T05:55:08;6.45;;;5.40;;
67904;SDS011;54709;43.614;1.576;2022-08-11T05:57:56;7.03;;;5.57;;
67904;SDS011;54709;43.614;1.576;2022-08-11T06:02:51;6.28;;;5.00;;
67904;SDS011;54709;43.614;1.576;2022-08-11T06:05:20;7.20;;;4.90;;
67904;SDS011;54709;43.614;1.576;2022-08-11T06:07:49;6.55;;;5.03;;
67904;SDS011;54709;43.614;1.576;2022-08-11T06:10:25;8.02;;;5.03;;
67904;SDS011;54709;43.614;1.576;2022-08-11T06:12:54;5.30;;;4.80;;
67904;SDS011;54709;43.614;1.576;2022-08-11T06:15:22;5.28;;;4.82;;
67904;SDS011;54709;43.614;1.576;2022-08-11T06:17:48;6.47;;;5.00;;
67904;SDS011;54709;43.614;1.576;2022-08-11T06:20:16;7.22;;;4.85;;
67904;SDS011;54709;43.614;1.576;2022-08-11T06:22:43;6.95;;;4.85;;
67904;SDS011;54709;43.614;1.576;2022-08-11T06:25:11;9.85;;;4.90;;
67904;SDS011;54709;43.614;1.576;2022-08-11T06:27:37;5.57;;;4.45;;
67904;SDS011;54709;43.614;1.576;2022-08-11T06:30:05;5.68;;;4.53;;
67904;SDS011;54709;43.614;1.576;2022-08-11T06:32:37;4.97;;;4.47;;
67904;SDS011;54709;43.614;1.576;2022-08-11T06:35:22;5.55;;;4.53;;
67904;SDS011;54709;43.614;1.576;2022-08-11T06:38:10;5.78;;;4.00;;
67904;SDS011;54709;43.614;1.576;2022-08-11T06:40:57;7.18;;;4.28;;
67904;SDS011;54709;43.614;1.576;2022-08-11T06:43:51;5.72;;;4.25;;
67904;SDS011;54709;43.614;1.576;2022-08-11T06:46:23;6.63;;;4.70;;
67904;SDS011;54709;43.614;1.576;2022-08-11T06:48:54;6.68;;;4.47;;
67904;SDS011;54709;43.614;1.576;2022-08-11T06:51:20;5.35;;;4.57;;
67904;SDS011;54709;43.614;1.576;2022-08-11T06:53:48;4.70;;;4.22;;
67904;SDS011;54709;43.614;1.576;2022-08-11T06:56:14;5.50;;;4.00;;
67904;SDS011;54709;43.614;1.576;2022-08-11T06:58:59;6.53;;;4.00;;
67904;SDS011;54709;43.614;1.576;2022-08-11T07:01:55;7.28;;;3.53;;
67904;SDS011;54709;43.614;1.576;2022-08-11T07:10:57;3.90;;;3.60;;
67904;SDS011;54709;43.614;1.576;2022-08-11T07:13:51;4.10;;;3.70;;
67904;SDS011;54709;43.614;1.576;2022-08-11T07:16:37;8.63;;;4.30;;
67904;SDS011;54709;43.614;1.576;2022-08-11T07:19:05;4.05;;;3.60;;
67904;SDS011;54709;43.614;1.576;2022-08-11T07:21:50;5.15;;;3.80;;
67904;SDS011;54709;43.614;1.576;2022-08-11T07:24:37;5.93;;;4.22;;
67904;SDS011;54709;43.614;1.576;2022-08-11T07:27:43;4.47;;;3.80;;
67904;SDS011;54709;43.614;1.576;2022-08-11T07:30:29;8.45;;;3.80;;
67904;SDS011;54709;43.614;1.576;2022-08-11T07:32:57;4.88;;;3.70;;
67904;SDS011;54709;43.614;1.576;2022-08-11T07:35:30;6.38;;;3.60;;
67904;SDS011;54709;43.614;1.576;2022-08-11T07:38:00;6.93;;;3.38;;
67904;SDS011;54709;43.614;1.576;2022-08-11T07:40:28;9.25;;;4.05;;
67904;SDS011;54709;43.614;1.576;2022-08-11T07:42:54;5.00;;;3.63;;
67904;SDS011;54709;43.614;1.576;2022-08-11T07:45:20;5.70;;;3.70;;
67904;SDS011;54709;43.614;1.576;2022-08-11T07:48:05;5.15;;;3.72;;
67904;SDS011;54709;43.614;1.576;2022-08-11T07:50:50;4.82;;;3.45;;
67904;SDS011;54709;43.614;1.576;2022-08-11T07:53:34;4.00;;;3.35;;
67904;SDS011;54709;43.614;1.576;2022-08-11T07:56:02;5.40;;;3.53;;
67904;SDS011;54709;43.614;1.576;2022-08-11T07:58:29;5.40;;;3.30;;
67904;SDS011;54709;43.614;1.576;2022-08-11T08:01:22;9.90;;;3.60;;
67904;SDS011;54709;43.614;1.576;2022-08-11T08:04:09;4.45;;;3.40;;
67904;SDS011;54709;43.614;1.576;2022-08-11T08:06:55;3.78;;;3.30;;
67904;SDS011;54709;43.614;1.576;2022-08-11T08:09:39;4.88;;;3.25;;
67904;SDS011;54709;43.614;1.576;2022-08-11T08:12:23;4.38;;;3.08;;
67904;SDS011;54709;43.614;1.576;2022-08-11T08:15:12;5.15;;;3.60;;
67904;SDS011;54709;43.614;1.576;2022-08-11T08:17:57;7.13;;;3.30;;
67904;SDS011;54709;43.614;1.576;2022-08-11T08:20:25;7.05;;;3.47;;
67904;SDS011;54709;43.614;1.576;2022-08-11T08:22:54;3.75;;;3.03;;
67904;SDS011;54709;43.614;1.576;2022-08-11T08:25:22;4.78;;;3.13;;
67904;SDS011;54709;43.614;1.576;2022-08-11T08:27:49;5.72;;;3.47;;
67904;SDS011;54709;43.614;1.576;2022-08-11T08:30:15;4.60;;;2.88;;
67904;SDS011;54709;43.614;1.576;2022-08-11T08:32:59;9.45;;;3.60;;
67904;SDS011;54709;43.614;1.576;2022-08-11T08:35:26;5.13;;;3.20;;
67904;SDS011;54709;43.614;1.576;2022-08-11T08:37:54;4.82;;;3.40;;
67904;SDS011;54709;43.614;1.576;2022-08-11T08:40:20;5.30;;;3.10;;
67904;SDS011;54709;43.614;1.576;2022-08-11T08:42:51;4.43;;;3.35;;
67904;SDS011;54709;43.614;1.576;2022-08-11T08:45:19;4.88;;;3.08;;
67904;SDS011;54709;43.614;1.576;2022-08-11T08:47:46;4.00;;;3.00;;
67904;SDS011;54709;43.614;1.576;2022-08-11T08:50:16;8.00;;;3.30;;
67904;SDS011;54709;43.614;1.576;2022-08-11T08:52:57;4.63;;;2.88;;
67904;SDS011;54709;43.614;1.576;2022-08-11T08:55:25;4.55;;;3.10;;
67904;SDS011;54709;43.614;1.576;2022-08-11T08:57:51;3.53;;;2.80;;
67904;SDS011;54709;43.614;1.576;2022-08-11T09:00:18;5.07;;;3.15;;
67904;SDS011;54709;43.614;1.576;2022-08-11T09:02:45;3.92;;;2.88;;
67904;SDS011;54709;43.614;1.576;2022-08-11T09:05:11;7.03;;;3.10;;
67904;SDS011;54709;43.614;1.576;2022-08-11T09:07:37;3.88;;;2.80;;
67904;SDS011;54709;43.614;1.576;2022-08-11T09:10:02;4.63;;;2.80;;
67904;SDS011;54709;43.614;1.576;2022-08-11T09:12:29;3.53;;;2.88;;
67904;SDS011;54709;43.614;1.576;2022-08-11T09:14:56;5.57;;;3.22;;
67904;SDS011;54709;43.614;1.576;2022-08-11T09:17:26;5.05;;;2.70;;
67904;SDS011;54709;43.614;1.576;2022-08-11T09:20:01;3.35;;;2.78;;
67904;SDS011;54709;43.614;1.576;2022-08-11T09:22:31;5.10;;;3.00;;
67904;SDS011;54709;43.614;1.576;2022-08-11T09:25:16;7.38;;;2.72;;
67904;SDS011;54709;43.614;1.576;2022-08-11T09:28:02;4.65;;;2.90;;
67904;SDS011;54709;43.614;1.576;2022-08-11T09:30:29;3.30;;;2.70;;
67904;SDS011;54709;43.614;1.576;2022-08-11T09:32:55;3.10;;;2.75;;
67904;SDS011;54709;43.614;1.576;2022-08-11T09:35:25;4.97;;;2.92;;
67904;SDS011;54709;43.614;1.576;2022-08-11T09:37:52;5.65;;;3.03;;
67904;SDS011;54709;43.614;1.576;2022-08-11T09:40:36;4.43;;;2.88;;
67904;SDS011;54709;43.614;1.576;2022-08-11T09:43:04;6.57;;;3.10;;
67904;SDS011;54709;43.614;1.576;2022-08-11T09:45:49;3.17;;;2.45;;
67904;SDS011;54709;43.614;1.576;2022-08-11T09:48:19;5.30;;;2.70;;
67904;SDS011;54709;43.614;1.576;2022-08-11T09:50:47;3.45;;;2.67;;
67904;SDS011;54709;43.614;1.576;2022-08-11T09:53:15;3.53;;;2.90;;
67904;SDS011;54709;43.614;1.576;2022-08-11T09:55:42;5.03;;;2.78;;
67904;SDS011;54709;43.614;1.576;2022-08-11T09:58:08;7.30;;;2.85;;
67904;SDS011;54709;43.614;1.576;2022-08-11T10:00:42;6.38;;;2.67;;
67904;SDS011;54709;43.614;1.576;2022-08-11T10:03:17;5.68;;;2.58;;
67904;SDS011;54709;43.614;1.576;2022-08-11T10:05:47;7.40;;;2.90;;
67904;SDS011;54709;43.614;1.576;2022-08-11T10:08:32;3.15;;;2.40;;
67904;SDS011;54709;43.614;1.576;2022-08-11T10:10:59;3.47;;;2.63;;
67904;SDS011;54709;43.614;1.576;2022-08-11T10:13:29;7.30;;;2.90;;
67904;SDS011;54709;43.614;1.576;2022-08-11T10:16:00;3.22;;;2.60;;
67904;SDS011;54709;43.614;1.576;2022-08-11T10:18:34;4.20;;;3.08;;
67904;SDS011;54709;43.614;1.576;2022-08-11T10:21:14;3.47;;;2.70;;
67904;SDS011;54709;43.614;1.576;2022-08-11T10:23:48;2.97;;;2.53;;
67904;SDS011;54709;43.614;1.576;2022-08-11T10:26:35;4.32;;;2.83;;
67904;SDS011;54709;43.614;1.576;2022-08-11T10:29:19;2.90;;;2.60;;
67904;SDS011;54709;43.614;1.576;2022-08-11T10:32:04;3.63;;;2.80;;
67904;SDS011;54709;43.614;1.576;2022-08-11T10:34:49;7.65;;;2.90;;
67904;SDS011;54709;43.614;1.576;2022-08-11T10:37:15;5.30;;;2.58;;
67904;SDS011;54709;43.614;1.576;2022-08-11T10:39:41;6.03;;;2.63;;
67904;SDS011;54709;43.614;1.576;2022-08-11T10:42:08;4.95;;;2.58;;
67904;SDS011;54709;43.614;1.576;2022-08-11T10:44:52;5.53;;;2.38;;
67904;SDS011;54709;43.614;1.576;2022-08-11T10:47:18;5.35;;;2.60;;
67904;SDS011;54709;43.614;1.576;2022-08-11T10:50:02;3.80;;;2.50;;
67904;SDS011;54709;43.614;1.576;2022-08-11T10:52:50;3.60;;;2.75;;
67904;SDS011;54709;43.614;1.576;2022-08-11T10:55:37;4.70;;;2.70;;
67904;SDS011;54709;43.614;1.576;2022-08-11T10:58:22;3.80;;;2.40;;
67904;SDS011;54709;43.614;1.576;2022-08-11T11:01:09;5.43;;;2.45;;
67904;SDS011;54709;43.614;1.576;2022-08-11T11:03:35;3.78;;;2.70;;
67904;SDS011;54709;43.614;1.576;2022-08-11T11:08:43;7.72;;;2.60;;
67904;SDS011;54709;43.614;1.576;2022-08-11T11:11:19;3.25;;;2.58;;
67904;SDS011;54709;43.614;1.576;2022-08-11T11:13:48;5.60;;;2.78;;
67904;SDS011;54709;43.614;1.576;2022-08-11T11:16:34;5.90;;;2.80;;
67904;SDS011;54709;43.614;1.576;2022-08-11T11:19:18;4.85;;;2.70;;
67904;SDS011;54709;43.614;1.576;2022-08-11T11:21:47;3.13;;;2.60;;
67904;SDS011;54709;43.614;1.576;2022-08-11T11:24:20;4.43;;;2.67;;
67904;SDS011;54709;43.614;1.576;2022-08-11T11:27:13;6.53;;;2.60;;
67904;SDS011;54709;43.614;1.576;2022-08-11T11:32:42;3.83;;;2.80;;
67904;SDS011;54709;43.614;1.576;2022-08-11T11:37:45;5.35;;;2.70;;
67904;SDS011;54709;43.614;1.576;2022-08-11T11:40:15;5.43;;;2.60;;
67904;SDS011;54709;43.614;1.576;2022-08-11T11:45:11;3.55;;;2.55;;
67904;SDS011;54709;43.614;1.576;2022-08-11T11:47:39;4.45;;;2.55;;
67904;SDS011;54709;43.614;1.576;2022-08-11T11:50:05;3.25;;;2.60;;
67904;SDS011;54709;43.614;1.576;2022-08-11T11:52:32;8.88;;;3.00;;
67904;SDS011;54709;43.614;1.576;2022-08-11T11:54:57;6.22;;;2.75;;
67904;SDS011;54709;43.614;1.576;2022-08-11T11:57:24;4.28;;;2.78;;
67904;SDS011;54709;43.614;1.576;2022-08-11T12:00:09;6.88;;;2.97;;
67904;SDS011;54709;43.614;1.576;2022-08-11T12:02:55;6.18;;;2.97;;
67904;SDS011;54709;43.614;1.576;2022-08-11T12:05:23;5.93;;;2.80;;
67904;SDS011;54709;43.614;1.576;2022-08-11T12:07:49;4.22;;;2.88;;
67904;SDS011;54709;43.614;1.576;2022-08-11T12:10:33;5.90;;;2.72;;
67904;SDS011;54709;43.614;1.576;2022-08-11T12:13:00;3.38;;;2.85;;
67904;SDS011;54709;43.614;1.576;2022-08-11T12:15:45;5.88;;;3.00;;
67904;SDS011;54709;43.614;1.576;2022-08-11T12:18:11;3.78;;;2.70;;
67904;SDS011;54709;43.614;1.576;2022-08-11T12:20:38;4.00;;;2.38;;
67904;SDS011;54709;43.614;1.576;2022-08-11T12:23:03;3.47;;;2.88;;
67904;SDS011;54709;43.614;1.576;2022-08-11T12:25:47;4.28;;;2.95;;
67904;SDS011;54709;43.614;1.576;2022-08-11T12:28:31;3.03;;;2.60;;
67904;SDS011;54709;43.614;1.576;2022-08-11T12:30:58;3.40;;;2.67;;
67904;SDS011;54709;43.614;1.576;2022-08-11T12:33:23;3.15;;;2.50;;
67904;SDS011;54709;43.614;1.576;2022-08-11T12:35:51;3.10;;;2.70;;
67904;SDS011;54709;43.614;1.576;2022-08-11T12:38:20;6.38;;;2.60;;
67904;SDS011;54709;43.614;1.576;2022-08-11T12:40:47;4.63;;;2.70;;
67904;SDS011;54709;43.614;1.576;2022-08-11T12:43:31;3.90;;;2.60;;
67904;SDS011;54709;43.614;1.576;2022-08-11T12:46:18;3.17;;;2.88;;
67904;SDS011;54709;43.614;1.576;2022-08-11T12:48:47;3.60;;;2.70;;
67904;SDS011;54709;43.614;1.576;2022-08-11T12:51:33;3.08;;;2.67;;
67904;SDS011;54709;43.614;1.576;2022-08-11T12:54:23;3.53;;;2.35;;
67904;SDS011;54709;43.614;1.576;2022-08-11T12:56:57;4.57;;;2.65;;
67904;SDS011;54709;43.614;1.576;2022-08-11T12:59:43;3.92;;;2.75;;
67904;SDS011;54709;43.614;1.576;2022-08-11T13:02:27;3.47;;;2.90;;
67904;SDS011;54709;43.614;1.576;2022-08-11T13:05:12;3.22;;;2.92;;
67904;SDS011;54709;43.614;1.576;2022-08-11T13:07:40;4.18;;;2.90;;
67904;SDS011;54709;43.614;1.576;2022-08-11T13:10:07;4.63;;;3.28;;
67904;SDS011;54709;43.614;1.576;2022-08-11T13:12:34;4.55;;;2.92;;
67904;SDS011;54709;43.614;1.576;2022-08-11T13:15:17;3.28;;;2.97;;
67904;SDS011;54709;43.614;1.576;2022-08-11T13:17:45;2.63;;;2.40;;
67904;SDS011;54709;43.614;1.576;2022-08-11T13:20:12;4.15;;;2.85;;
67904;SDS011;54709;43.614;1.576;2022-08-11T13:22:40;2.95;;;2.75;;
67904;SDS011;54709;43.614;1.576;2022-08-11T13:25:09;5.20;;;2.72;;
67904;SDS011;54709;43.614;1.576;2022-08-11T13:27:37;5.47;;;3.22;;
67904;SDS011;54709;43.614;1.576;2022-08-11T13:30:03;3.67;;;3.30;;
67904;SDS011;54709;43.614;1.576;2022-08-11T13:32:47;5.35;;;3.00;;
67904;SDS011;54709;43.614;1.576;2022-08-11T13:35:13;3.95;;;3.08;;
67904;SDS011;54709;43.614;1.576;2022-08-11T13:37:40;3.05;;;2.75;;
67904;SDS011;54709;43.614;1.576;2022-08-11T13:40:07;7.80;;;3.55;;
67904;SDS011;54709;43.614;1.576;2022-08-11T13:42:34;6.00;;;3.08;;
67904;SDS011;54709;43.614;1.576;2022-08-11T13:45:00;5.40;;;3.28;;
67904;SDS011;54709;43.614;1.576;2022-08-11T13:47:26;6.65;;;3.00;;
67904;SDS011;54709;43.614;1.576;2022-08-11T13:49:51;5.00;;;3.10;;
67904;SDS011;54709;43.614;1.576;2022-08-11T13:52:17;6.35;;;3.08;;
67904;SDS011;54709;43.614;1.576;2022-08-11T13:54:44;5.60;;;3.20;;
67904;SDS011;54709;43.614;1.576;2022-08-11T13:57:12;4.97;;;3.35;;
67904;SDS011;54709;43.614;1.576;2022-08-11T13:59:40;7.00;;;3.15;;
67904;SDS011;54709;43.614;1.576;2022-08-11T14:02:07;5.05;;;3.25;;
67904;SDS011;54709;43.614;1.576;2022-08-11T14:07:21;3.75;;;3.00;;
67904;SDS011;54709;43.614;1.576;2022-08-11T14:09:52;3.58;;;2.90;;
67904;SDS011;54709;43.614;1.576;2022-08-11T14:12:22;3.45;;;3.15;;
67904;SDS011;54709;43.614;1.576;2022-08-11T14:15:15;5.05;;;3.67;;
67904;SDS011;54709;43.614;1.576;2022-08-11T14:17:46;5.20;;;3.30;;
67904;SDS011;54709;43.614;1.576;2022-08-11T14:20:15;5.07;;;3.50;;
67904;SDS011;54709;43.614;1.576;2022-08-11T14:22:41;4.00;;;3.10;;
67904;SDS011;54709;43.614;1.576;2022-08-11T14:25:07;4.30;;;3.47;;
67904;SDS011;54709;43.614;1.576;2022-08-11T14:27:34;4.50;;;3.45;;
67904;SDS011;54709;43.614;1.576;2022-08-11T14:30:00;3.55;;;2.88;;
67904;SDS011;54709;43.614;1.576;2022-08-11T14:32:25;3.00;;;2.70;;
67904;SDS011;54709;43.614;1.576;2022-08-11T14:34:51;3.33;;;3.03;;
67904;SDS011;54709;43.614;1.576;2022-08-11T14:37:18;3.58;;;3.28;;
67904;SDS011;54709;43.614;1.576;2022-08-11T14:39:58;3.65;;;2.72;;
67904;SDS011;54709;43.614;1.576;2022-08-11T14:42:25;3.30;;;3.00;;
67904;SDS011;54709;43.614;1.576;2022-08-11T14:45:10;3.42;;;2.85;;
67904;SDS011;54709;43.614;1.576;2022-08-11T14:47:58;3.40;;;3.10;;
67904;SDS011;54709;43.614;1.576;2022-08-11T14:50:26;4.43;;;3.20;;
67904;SDS011;54709;43.614;1.576;2022-08-11T14:55:30;3.35;;;3.00;;
67904;SDS011;54709;43.614;1.576;2022-08-11T14:58:16;4.75;;;2.67;;
67904;SDS011;54709;43.614;1.576;2022-08-11T15:00:42;3.35;;;2.97;;
67904;SDS011;54709;43.614;1.576;2022-08-11T15:03:12;4.22;;;3.20;;
67904;SDS011;54709;43.614;1.576;2022-08-11T15:05:48;4.78;;;3.30;;
67904;SDS011;54709;43.614;1.576;2022-08-11T15:08:16;3.15;;;2.85;;
67904;SDS011;54709;43.614;1.576;2022-08-11T15:10:43;5.22;;;3.05;;
67904;SDS011;54709;43.614;1.576;2022-08-11T15:13:10;3.30;;;2.65;;
67904;SDS011;54709;43.614;1.576;2022-08-11T15:15:36;3.65;;;2.97;;
67904;SDS011;54709;43.614;1.576;2022-08-11T15:18:21;3.22;;;2.92;;
67904;SDS011;54709;43.614;1.576;2022-08-11T15:20:48;4.20;;;3.15;;
67904;SDS011;54709;43.614;1.576;2022-08-11T15:23:32;3.70;;;2.88;;
67904;SDS011;54709;43.614;1.576;2022-08-11T15:26:17;6.03;;;3.20;;
67904;SDS011;54709;43.614;1.576;2022-08-11T15:29:04;3.45;;;2.95;;
67904;SDS011;54709;43.614;1.576;2022-08-11T15:31:48;3.50;;;2.78;;
67904;SDS011;54709;43.614;1.576;2022-08-11T15:34:32;3.13;;;2.70;;
67904;SDS011;54709;43.614;1.576;2022-08-11T15:37:16;4.70;;;3.28;;
67904;SDS011;54709;43.614;1.576;2022-08-11T15:42:48;4.10;;;3.08;;
67904;SDS011;54709;43.614;1.576;2022-08-11T15:45:40;3.97;;;3.28;;
67904;SDS011;54709;43.614;1.576;2022-08-11T15:48:15;4.80;;;3.10;;
67904;SDS011;54709;43.614;1.576;2022-08-11T15:50:55;3.75;;;3.00;;
67904;SDS011;54709;43.614;1.576;2022-08-11T15:53:25;3.90;;;3.28;;
67904;SDS011;54709;43.614;1.576;2022-08-11T15:55:54;4.35;;;3.53;;
67904;SDS011;54709;43.614;1.576;2022-08-11T15:58:20;3.15;;;2.85;;
67904;SDS011;54709;43.614;1.576;2022-08-11T16:01:06;6.03;;;3.60;;
67904;SDS011;54709;43.614;1.576;2022-08-11T16:03:52;4.57;;;3.30;;
67904;SDS011;54709;43.614;1.576;2022-08-11T16:06:43;3.88;;;3.45;;
67904;SDS011;54709;43.614;1.576;2022-08-11T16:09:14;3.55;;;3.15;;
67904;SDS011;54709;43.614;1.576;2022-08-11T16:11:41;4.60;;;3.00;;
67904;SDS011;54709;43.614;1.576;2022-08-11T16:14:08;4.15;;;3.33;;
67904;SDS011;54709;43.614;1.576;2022-08-11T16:16:53;5.07;;;3.58;;
67904;SDS011;54709;43.614;1.576;2022-08-11T16:19:21;4.35;;;3.15;;
67904;SDS011;54709;43.614;1.576;2022-08-11T16:21:48;5.53;;;3.70;;
67904;SDS011;54709;43.614;1.576;2022-08-11T16:24:14;3.75;;;2.95;;
67904;SDS011;54709;43.614;1.576;2022-08-11T16:26:41;9.15;;;3.40;;
67904;SDS011;54709;43.614;1.576;2022-08-11T16:29:09;3.80;;;3.08;;
67904;SDS011;54709;43.614;1.576;2022-08-11T16:31:35;3.53;;;3.17;;
67904;SDS011;54709;43.614;1.576;2022-08-11T16:34:01;3.47;;;2.90;;
67904;SDS011;54709;43.614;1.576;2022-08-11T16:36:27;3.85;;;3.53;;
67904;SDS011;54709;43.614;1.576;2022-08-11T16:39:11;5.63;;;3.45;;
67904;SDS011;54709;43.614;1.576;2022-08-11T16:41:38;5.22;;;3.72;;
67904;SDS011;54709;43.614;1.576;2022-08-11T16:44:23;3.42;;;3.13;;
67904;SDS011;54709;43.614;1.576;2022-08-11T16:47:12;3.40;;;2.90;;
67904;SDS011;54709;43.614;1.576;2022-08-11T16:49:43;3.63;;;2.88;;
67904;SDS011;54709;43.614;1.576;2022-08-11T16:52:11;5.28;;;3.25;;
67904;SDS011;54709;43.614;1.576;2022-08-11T16:54:37;3.25;;;2.95;;
67904;SDS011;54709;43.614;1.576;2022-08-11T16:57:11;4.75;;;3.08;;
67904;SDS011;54709;43.614;1.576;2022-08-11T16:59:57;3.50;;;3.20;;
67904;SDS011;54709;43.614;1.576;2022-08-11T17:02:27;3.97;;;2.97;;
67904;SDS011;54709;43.614;1.576;2022-08-11T17:05:16;3.28;;;2.97;;
67904;SDS011;54709;43.614;1.576;2022-08-11T17:08:02;7.88;;;3.50;;
67904;SDS011;54709;43.614;1.576;2022-08-11T17:10:49;3.70;;;2.90;;
67904;SDS011;54709;43.614;1.576;2022-08-11T17:13:49;3.53;;;2.88;;
67904;SDS011;54709;43.614;1.576;2022-08-11T17:16:22;3.47;;;2.70;;
67904;SDS011;54709;43.614;1.576;2022-08-11T17:24:21;3.95;;;3.20;;
67904;SDS011;54709;43.614;1.576;2022-08-11T17:26:48;3.38;;;2.95;;
67904;SDS011;54709;43.614;1.576;2022-08-11T17:29:26;3.40;;;3.03;;
67904;SDS011;54709;43.614;1.576;2022-08-11T17:31:54;3.92;;;3.28;;
67904;SDS011;54709;43.614;1.576;2022-08-11T17:34:39;3.75;;;3.15;;
67904;SDS011;54709;43.614;1.576;2022-08-11T17:37:25;5.13;;;3.10;;
67904;SDS011;54709;43.614;1.576;2022-08-11T17:39:51;3.97;;;3.42;;
67904;SDS011;54709;43.614;1.576;2022-08-11T17:42:17;3.70;;;3.08;;
67904;SDS011;54709;43.614;1.576;2022-08-11T17:45:01;3.28;;;2.97;;
67904;SDS011;54709;43.614;1.576;2022-08-11T17:47:46;5.30;;;3.25;;
67904;SDS011;54709;43.614;1.576;2022-08-11T17:50:31;6.38;;;3.55;;
67904;SDS011;54709;43.614;1.576;2022-08-11T17:52:57;8.02;;;3.38;;
67904;SDS011;54709;43.614;1.576;2022-08-11T17:55:41;5.18;;;3.45;;
67904;SDS011;54709;43.614;1.576;2022-08-11T17:58:26;4.55;;;3.47;;
67904;SDS011;54709;43.614;1.576;2022-08-11T18:01:10;5.95;;;3.20;;
67904;SDS011;54709;43.614;1.576;2022-08-11T18:03:37;4.78;;;3.05;;
67904;SDS011;54709;43.614;1.576;2022-08-11T18:06:03;4.47;;;3.25;;
67904;SDS011;54709;43.614;1.576;2022-08-11T18:08:30;5.45;;;3.15;;
67904;SDS011;54709;43.614;1.576;2022-08-11T18:11:15;4.00;;;3.60;;
67904;SDS011;54709;43.614;1.576;2022-08-11T18:14:01;3.92;;;3.53;;
67904;SDS011;54709;43.614;1.576;2022-08-11T18:16:47;3.42;;;3.10;;
67904;SDS011;54709;43.614;1.576;2022-08-11T18:19:31;4.93;;;3.30;;
67904;SDS011;54709;43.614;1.576;2022-08-11T18:22:16;4.53;;;3.47;;
67904;SDS011;54709;43.614;1.576;2022-08-11T18:25:11;3.78;;;3.47;;
67904;SDS011;54709;43.614;1.576;2022-08-11T18:27:56;4.18;;;3.40;;
67904;SDS011;54709;43.614;1.576;2022-08-11T18:30:43;3.40;;;3.10;;
67904;SDS011;54709;43.614;1.576;2022-08-11T18:33:39;4.70;;;3.53;;
67904;SDS011;54709;43.614;1.576;2022-08-11T18:36:28;5.65;;;3.40;;
67904;SDS011;54709;43.614;1.576;2022-08-11T18:39:14;6.07;;;3.47;;
67904;SDS011;54709;43.614;1.576;2022-08-11T18:42:04;3.88;;;3.50;;
67904;SDS011;54709;43.614;1.576;2022-08-11T18:44:50;10.65;;;3.97;;
67904;SDS011;54709;43.614;1.576;2022-08-11T18:47:34;4.03;;;3.63;;
67904;SDS011;54709;43.614;1.576;2022-08-11T18:50:18;5.15;;;3.22;;
67904;SDS011;54709;43.614;1.576;2022-08-11T18:53:02;6.75;;;3.42;;
67904;SDS011;54709;43.614;1.576;2022-08-11T18:55:48;4.60;;;3.60;;
67904;SDS011;54709;43.614;1.576;2022-08-11T18:58:32;5.43;;;3.70;;
67904;SDS011;54709;43.614;1.576;2022-08-11T19:01:18;4.03;;;3.70;;
67904;SDS011;54709;43.614;1.576;2022-08-11T19:04:03;3.60;;;3.30;;
67904;SDS011;54709;43.614;1.576;2022-08-11T19:06:48;3.78;;;3.42;;
67904;SDS011;54709;43.614;1.576;2022-08-11T19:09:35;6.30;;;3.38;;
67904;SDS011;54709;43.614;1.576;2022-08-11T19:12:20;3.53;;;3.08;;
67904;SDS011;54709;43.614;1.576;2022-08-11T19:15:06;3.83;;;3.53;;
67904;SDS011;54709;43.614;1.576;2022-08-11T19:17:51;4.95;;;3.53;;